Time;durP1;ratioP1;P1;durP2;ratioP2;P2;SDS_P1;SDS_P2;PMS_P1;PMS_P2;Temp;Humidity;BMP_temperature;BMP_pressure;BME280_temperature;BME280_humidity;BME280_pressure;Samples;Min_cycle;Max_cycle;Signal;HPM_P1;HPM_P2
2022/03/08 00:01:28;;;;;;;12.83;10.40;;;;;;;5.81;68.27;94381.16;5050971;28;20229;-86
2022/03/08 00:03:55;;;;;;;13.17;10.50;;;;;;;5.44;68.40;94324.78;5050342;28;20201;-87
2022/03/08 00:06:22;;;;;;;13.50;10.40;;;;;;;5.62;68.46;94351.31;5050782;28;20187;-86
2022/03/08 00:08:51;;;;;;;11.90;9.60;;;;;;;5.81;68.27;94378.63;5050455;28;20183;-87
2022/03/08 00:11:18;;;;;;;11.80;10.20;;;;;;;5.64;68.18;94351.97;5050724;28;20191;-88
2022/03/08 00:13:45;;;;;;;11.50;9.97;;;;;;;5.81;68.34;94378.63;5049884;28;20195;-80
2022/03/08 00:16:12;;;;;;;14.43;10.63;;;;;;;5.35;68.33;94302.66;5050490;28;20187;-81
2022/03/08 00:18:39;;;;;;;13.43;9.60;;;;;;;5.57;68.50;94345.78;5049907;28;20241;-81
2022/03/08 00:21:06;;;;;;;12.87;10.20;;;;;;;5.85;68.18;94386.81;5050003;28;20231;-80
2022/03/08 00:23:36;;;;;;;14.27;10.73;;;;;;;5.85;68.35;94391.88;5049627;28;20194;-84
2022/03/08 00:26:05;;;;;;;15.40;11.00;;;;;;;5.78;68.19;94371.22;5050121;28;20248;-84
2022/03/08 00:28:32;;;;;;;11.73;9.97;;;;;;;5.87;68.23;94384.94;5050154;28;20245;-80
2022/03/08 00:31:00;;;;;;;13.93;11.10;;;;;;;5.88;68.07;94379.78;5049466;28;20187;-80
2022/03/08 00:33:27;;;;;;;13.73;10.53;;;;;;;5.89;67.98;94383.91;5050031;28;20193;-80
2022/03/08 00:35:54;;;;;;;13.20;10.00;;;;;;;5.92;67.97;94388.00;5049567;28;20203;-80
2022/03/08 00:38:21;;;;;;;10.90;9.80;;;;;;;5.21;67.65;94289.28;5049019;28;20198;-80
2022/03/08 00:40:48;;;;;;;10.73;9.33;;;;;;;5.94;67.81;94386.13;5049440;28;20247;-81
2022/03/08 00:43:17;;;;;;;12.97;9.67;;;;;;;5.95;67.97;94380.94;5049489;28;20202;-81
2022/03/08 00:45:44;;;;;;;11.60;10.00;;;;;;;5.95;67.83;94383.47;5049505;28;20195;-79
2022/03/08 00:48:11;;;;;;;11.67;9.70;;;;;;;5.96;67.86;94371.59;5049719;28;20191;-80
2022/03/08 00:50:38;;;;;;;12.07;9.83;;;;;;;5.98;67.60;94374.81;5048410;28;20191;-82
2022/03/08 00:53:06;;;;;;;11.80;9.80;;;;;;;5.98;67.58;94374.81;5049039;28;20193;-80
2022/03/08 00:55:34;;;;;;;10.77;9.50;;;;;;;5.59;67.33;94315.22;5049052;28;20690;-81
2022/03/08 00:58:01;;;;;;;12.70;10.87;;;;;;;5.98;67.20;94372.28;5049861;28;20609;-80
2022/03/08 01:00:31;;;;;;;12.17;9.47;;;;;;;5.99;67.40;94378.97;5052500;28;20260;-81
2022/03/08 01:02:58;;;;;;;12.63;10.10;;;;;;;5.99;67.26;94371.34;5052525;28;20199;-80
2022/03/08 01:05:25;;;;;;;12.63;9.37;;;;;;;5.69;67.46;94324.53;5053000;28;20198;-80
2022/03/08 01:07:52;;;;;;;12.70;9.93;;;;;;;5.91;67.29;94354.13;5052661;28;20658;-81
2022/03/08 01:10:22;;;;;;;11.87;10.40;;;;;;;5.14;67.20;94239.19;5053594;28;20230;-80
2022/03/08 01:12:50;;;;;;;11.23;9.37;;;;;;;5.73;67.21;94331.00;5052303;28;20577;-82
2022/03/08 01:15:18;;;;;;;11.47;9.90;;;;;;;5.99;67.13;94362.00;5053261;28;20194;-82
2022/03/08 01:17:47;;;;;;;12.40;10.00;;;;;;;6.01;67.11;94364.44;5053008;28;20185;-80
2022/03/08 01:20:16;;;;;;;11.30;10.10;;;;;;;5.99;67.09;94363.75;5053096;28;20227;-80
2022/03/08 01:22:43;;;;;;;11.83;10.23;;;;;;;6.01;66.92;94366.97;5052372;28;20559;-79
2022/03/08 01:25:12;;;;;;;12.57;10.00;;;;;;;6.00;66.91;94365.34;5053183;28;20198;-80
2022/03/08 01:27:39;;;;;;;12.43;10.40;;;;;;;5.86;66.82;94342.75;5052997;28;20179;-82
2022/03/08 01:30:08;;;;;;;11.90;9.63;;;;;;;5.53;66.77;94286.06;5053099;28;20557;-80
2022/03/08 01:32:35;;;;;;;11.43;9.67;;;;;;;6.00;66.66;94358.56;5053199;28;20194;-83
2022/03/08 01:35:04;;;;;;;12.70;10.23;;;;;;;5.85;66.59;94341.13;5053371;28;20191;-83
2022/03/08 01:37:31;;;;;;;12.83;10.40;;;;;;;6.01;66.72;94364.44;5055116;28;20210;-81
2022/03/08 01:39:58;;;;;;;12.67;10.57;;;;;;;6.00;66.89;94363.66;5053816;28;20187;-81
2022/03/08 01:42:26;;;;;;;12.63;10.10;;;;;;;5.29;66.63;94253.22;5053918;28;20314;-82
2022/03/08 01:44:54;;;;;;;12.37;10.63;;;;;;;6.00;66.64;94358.56;5053876;28;20191;-81
2022/03/08 01:47:22;;;;;;;14.60;10.77;;;;;;;5.84;66.66;94332.72;5053329;28;20191;-81
2022/03/08 01:49:50;;;;;;;12.50;10.77;;;;;;;6.00;66.17;94362.81;5052170;28;20195;-85
2022/03/08 01:52:21;;;;;;;13.77;11.00;;;;;;;5.99;66.25;94356.13;5052426;28;20187;-79
2022/03/08 01:54:50;;;;;;;14.03;11.07;;;;;;;5.98;66.10;94355.31;5052486;28;20244;-80
2022/03/08 01:57:19;;;;;;;11.97;10.67;;;;;;;5.84;66.02;94337.78;5052875;28;20253;-84
2022/03/08 01:59:46;;;;;;;12.03;10.73;;;;;;;5.96;66.01;94356.38;5052148;28;20191;-82
2022/03/08 02:02:14;;;;;;;14.57;11.70;;;;;;;5.77;66.11;94332.38;5052081;28;20248;-82
2022/03/08 02:04:40;;;;;;;14.30;11.90;;;;;;;5.76;65.91;94330.75;5052088;28;20281;-81
2022/03/08 02:07:08;;;;;;;14.47;11.50;;;;;;;5.67;65.82;94320.53;5052176;28;20643;-81
2022/03/08 02:09:36;;;;;;;15.70;12.13;;;;;;;5.90;65.87;94357.59;5052774;28;20203;-83
2022/03/08 02:12:04;;;;;;;15.27;11.60;;;;;;;5.94;65.77;94360.75;5051465;28;20184;-83
2022/03/08 02:14:32;;;;;;;13.87;11.53;;;;;;;5.31;65.95;94258.19;5051981;28;20301;-82
2022/03/08 02:16:59;;;;;;;14.93;12.23;;;;;;;5.92;65.93;94362.63;5052083;28;20190;-82
2022/03/08 02:19:25;;;;;;;15.77;11.00;;;;;;;5.92;65.74;94365.16;5051305;28;20231;-82
2022/03/08 02:21:54;;;;;;;15.93;12.13;;;;;;;5.91;65.87;94360.94;5051508;28;20227;-83
2022/03/08 02:24:21;;;;;;;16.63;13.10;;;;;;;5.91;66.02;94363.47;5051691;28;20222;-81
2022/03/08 02:26:49;;;;;;;13.77;11.43;;;;;;;5.68;65.84;94335.59;5052110;28;20191;-83
2022/03/08 02:29:16;;;;;;;16.10;12.83;;;;;;;5.67;65.95;94328.94;5052977;28;20183;-80
2022/03/08 02:31:43;;;;;;;16.53;13.33;;;;;;;5.35;65.56;94288.25;5050914;28;20207;-81
2022/03/08 02:34:09;;;;;;;18.63;14.07;;;;;;;4.37;65.89;94130.16;5051484;28;20213;-82
2022/03/08 02:36:36;;;;;;;18.10;13.10;;;;;;;5.88;66.04;94369.63;5051868;28;20183;-82
2022/03/08 02:39:04;;;;;;;18.53;13.90;;;;;;;5.88;66.08;94367.09;5051826;28;20191;-81
2022/03/08 02:41:31;;;;;;;17.30;13.03;;;;;;;5.88;66.27;94371.34;5050193;28;20646;-82
2022/03/08 02:43:58;;;;;;;15.80;12.47;;;;;;;5.89;66.16;94376.31;5051369;28;20202;-79
2022/03/08 02:46:25;;;;;;;15.60;12.73;;;;;;;5.87;66.27;94375.63;5051337;28;20187;-79
2022/03/08 02:48:52;;;;;;;17.03;13.33;;;;;;;5.86;66.10;94376.53;5050891;28;20211;-80
2022/03/08 02:51:20;;;;;;;16.07;12.87;;;;;;;5.86;66.18;94379.06;5051370;28;20187;-83
2022/03/08 02:53:47;;;;;;;16.17;13.33;;;;;;;5.86;66.29;94376.53;5051357;28;20191;-80
2022/03/08 02:56:16;;;;;;;16.10;13.03;;;;;;;5.86;66.18;94381.59;5052257;28;20187;-86
2022/03/08 02:58:42;;;;;;;16.87;13.77;;;;;;;5.62;66.16;94346.25;5052699;28;20193;-81
2022/03/08 03:01:09;;;;;;;19.00;14.77;;;;;;;5.84;66.20;94391.06;5053451;28;20211;-81
2022/03/08 03:03:36;;;;;;;20.93;13.97;;;;;;;5.46;66.18;94325.50;5054295;28;20214;-82
2022/03/08 03:06:03;;;;;;;20.13;13.47;;;;;;;5.11;66.13;94270.66;5053222;28;20569;-82
2022/03/08 03:08:30;;;;;;;17.40;13.47;;;;;;;5.84;66.25;94390.28;5052747;28;20543;-82
2022/03/08 03:10:57;;;;;;;15.23;12.70;;;;;;;5.83;66.35;94392.00;5052205;28;20268;-81
2022/03/08 03:13:25;;;;;;;15.90;13.03;;;;;;;5.83;66.33;94392.00;5053545;28;20188;-82
2022/03/08 03:15:52;;;;;;;17.27;12.53;;;;;;;5.84;66.23;94403.75;5053346;28;20199;-82
2022/03/08 03:18:18;;;;;;;18.27;14.03;;;;;;;5.83;66.10;94393.72;5053223;28;20195;-81
2022/03/08 03:20:46;;;;;;;18.23;14.13;;;;;;;5.84;66.31;94398.69;5052519;28;20249;-83
2022/03/08 03:23:12;;;;;;;16.83;12.90;;;;;;;5.37;66.19;94331.25;5050930;28;20579;-79
2022/03/08 03:25:39;;;;;;;17.93;14.10;;;;;;;5.84;66.46;94402.97;5050959;28;20194;-81
2022/03/08 03:28:06;;;;;;;17.90;13.47;;;;;;;3.97;66.29;94120.44;5051097;28;20179;-81
2022/03/08 03:30:34;;;;;;;17.33;13.83;;;;;;;5.84;66.37;94403.75;5050837;28;20202;-80
2022/03/08 03:33:03;;;;;;;18.47;13.50;;;;;;;5.17;66.33;94292.97;5049891;28;20686;-80
2022/03/08 03:35:30;;;;;;;16.93;12.63;;;;;;;5.84;66.31;94398.69;5051550;28;20634;-83
2022/03/08 03:37:57;;;;;;;17.37;12.90;;;;;;;5.85;66.38;94400.28;5050326;28;20195;-81
2022/03/08 03:40:24;;;;;;;16.17;12.67;;;;;;;5.85;66.26;94396.97;5050212;28;20630;-82
2022/03/08 03:42:51;;;;;;;18.07;13.00;;;;;;;5.84;66.38;94398.69;5049526;28;20294;-81
2022/03/08 03:45:18;;;;;;;16.33;13.67;;;;;;;5.84;66.34;94401.22;5054779;28;20206;-80
2022/03/08 03:47:46;;;;;;;18.37;13.10;;;;;;;5.86;66.54;94404.44;5060921;28;20198;-84
2022/03/08 03:50:13;;;;;;;18.33;14.30;;;;;;;5.86;66.39;94404.44;5065782;28;20572;-86
2022/03/08 03:52:40;;;;;;;17.93;13.80;;;;;;;5.59;66.41;94364.22;5060515;28;20183;-86
2022/03/08 03:55:08;;;;;;;16.77;13.03;;;;;;;5.86;66.50;94406.16;5051172;28;20195;-87
2022/03/08 03:57:35;;;;;;;17.00;12.40;;;;;;;5.86;66.22;94401.09;5051332;28;20675;-88
2022/03/08 04:00:01;;;;;;;15.30;12.23;;;;;;;5.86;66.47;94406.97;5049993;28;20187;-87
2022/03/08 04:02:28;;;;;;;16.73;12.07;;;;;;;4.97;66.15;94268.34;5050554;28;20226;-83
2022/03/08 04:04:56;;;;;;;17.67;13.33;;;;;;;5.86;66.47;94409.50;5050993;28;20202;-86
2022/03/08 04:07:23;;;;;;;15.40;12.90;;;;;;;5.87;66.57;94403.53;5050238;28;20593;-84
2022/03/08 04:09:50;;;;;;;16.83;13.73;;;;;;;5.49;66.54;94341.28;5050335;28;20206;-88
2022/03/08 04:12:17;;;;;;;16.00;12.83;;;;;;;5.88;66.57;94404.34;5050767;28;20191;-82
2022/03/08 04:14:45;;;;;;;18.27;13.57;;;;;;;5.88;66.63;94409.41;5049177;28;20191;-81
2022/03/08 04:17:11;;;;;;;16.37;13.70;;;;;;;5.87;66.65;94406.06;5050231;28;20195;-80
2022/03/08 04:19:40;;;;;;;16.30;12.67;;;;;;;5.87;66.80;94411.16;5049461;28;20229;-81
2022/03/08 04:22:08;;;;;;;17.30;13.57;;;;;;;5.87;66.79;94408.63;5049476;28;20276;-81
2022/03/08 04:24:35;;;;;;;18.07;13.83;;;;;;;5.56;66.82;94354.28;5049523;28;20195;-81
2022/03/08 04:27:03;;;;;;;16.43;12.87;;;;;;;5.88;66.89;94405.16;5049658;28;20566;-82
2022/03/08 04:29:31;;;;;;;18.57;14.73;;;;;;;5.89;66.94;94400.88;5049194;28;20191;-80
2022/03/08 04:31:58;;;;;;;17.30;14.10;;;;;;;5.89;66.95;94406.75;5044173;28;20567;-81
2022/03/08 04:34:24;;;;;;;18.63;14.23;;;;;;;5.36;67.01;94322.84;5055817;28;20195;-85
2022/03/08 04:36:51;;;;;;;19.00;14.73;;;;;;;5.89;67.08;94403.41;5054180;28;20191;-81
2022/03/08 04:39:20;;;;;;;19.17;13.90;;;;;;;5.67;67.20;94366.19;5054118;28;20203;-83
2022/03/08 04:41:46;;;;;;;21.10;15.23;;;;;;;5.55;67.04;94345.06;5054408;28;20246;-80
2022/03/08 04:44:13;;;;;;;19.40;15.37;;;;;;;5.49;67.19;94341.28;5052959;28;20569;-81
2022/03/08 04:46:41;;;;;;;20.00;15.03;;;;;;;5.68;67.08;94372.84;5053613;28;20183;-84
2022/03/08 04:49:08;;;;;;;18.47;13.93;;;;;;;4.83;66.93;94238.94;5053968;28;20600;-84
2022/03/08 04:51:35;;;;;;;17.83;13.97;;;;;;;5.88;67.25;94402.59;5053013;28;20198;-82
2022/03/08 04:54:02;;;;;;;17.07;13.83;;;;;;;5.70;67.20;94376.91;5053322;28;20192;-81
2022/03/08 04:56:30;;;;;;;21.30;15.13;;;;;;;5.89;67.24;94406.75;5053382;28;20648;-84
2022/03/08 04:58:58;;;;;;;19.43;13.67;;;;;;;5.89;67.14;94405.94;5053336;28;20199;-80
2022/03/08 05:01:25;;;;;;;17.30;14.00;;;;;;;5.90;66.98;94402.47;5052533;28;20237;-84
2022/03/08 05:03:52;;;;;;;17.80;14.97;;;;;;;5.40;66.86;94325.97;5052951;28;20194;-80
2022/03/08 05:06:19;;;;;;;18.53;14.30;;;;;;;5.89;67.06;94405.94;5053018;28;20650;-82
2022/03/08 05:08:46;;;;;;;19.57;15.23;;;;;;;5.76;66.94;94386.56;5052575;28;20198;-86
2022/03/08 05:11:13;;;;;;;18.40;14.03;;;;;;;5.74;67.11;94382.53;5052338;28;20262;-82
2022/03/08 05:13:42;;;;;;;19.77;15.07;;;;;;;5.90;67.01;94410.09;5052263;28;20195;-81
2022/03/08 05:16:08;;;;;;;20.27;14.63;;;;;;;5.91;66.99;94409.16;5053039;28;20689;-80
2022/03/08 05:18:36;;;;;;;19.07;14.80;;;;;;;5.91;66.97;94411.69;5052757;28;20187;-79
2022/03/08 05:21:03;;;;;;;18.23;14.30;;;;;;;5.91;67.00;94407.44;5052214;28;20242;-81
2022/03/08 05:23:29;;;;;;;18.67;14.80;;;;;;;5.92;67.01;94414.19;5052788;28;20218;-80
2022/03/08 05:25:57;;;;;;;18.73;14.10;;;;;;;5.93;66.83;94408.16;5052588;28;20185;-81
2022/03/08 05:28:24;;;;;;;19.77;14.77;;;;;;;5.94;66.89;94409.78;5033108;28;20206;-81
2022/03/08 05:30:52;;;;;;;19.43;14.60;;;;;;;5.95;66.82;94401.22;5042844;28;20198;-84
2022/03/08 05:33:19;;;;;;;17.43;13.87;;;;;;;5.84;66.64;94383.47;5053368;28;20209;-87
2022/03/08 05:35:46;;;;;;;18.73;15.10;;;;;;;6.00;66.77;94406.78;5053229;28;20662;-81
2022/03/08 05:38:12;;;;;;;18.57;14.33;;;;;;;6.03;66.62;94400.66;5052813;28;20785;-83
2022/03/08 05:40:40;;;;;;;18.80;13.90;;;;;;;6.08;66.46;94408.72;5057016;28;20582;-87
2022/03/08 05:43:07;;;;;;;18.60;14.63;;;;;;;4.97;66.40;94222.75;5052788;28;20207;-83
2022/03/08 05:45:34;;;;;;;21.07;15.23;;;;;;;6.15;66.13;94401.44;5052107;28;20190;-85
2022/03/08 05:48:02;;;;;;;18.53;14.77;;;;;;;6.18;66.06;94404.56;5053028;28;20191;-82
2022/03/08 05:50:29;;;;;;;18.77;14.53;;;;;;;6.22;66.09;94408.47;5053013;28;20195;-85
2022/03/08 05:52:56;;;;;;;20.00;15.07;;;;;;;6.27;66.05;94413.19;5052852;28;20195;-82
2022/03/08 05:55:23;;;;;;;18.33;14.30;;;;;;;6.34;65.99;94414.31;5053063;28;20194;-85
2022/03/08 05:57:49;;;;;;;18.67;13.87;;;;;;;6.41;65.61;94417.22;5052574;28;20210;-82
2022/03/08 06:00:17;;;;;;;22.03;15.00;;;;;;;6.47;65.51;94412.44;5053140;28;20193;-84
2022/03/08 06:02:43;;;;;;;19.23;14.87;;;;;;;6.56;65.47;94413.47;5057830;28;20222;-82
2022/03/08 06:05:12;;;;;;;19.50;14.20;;;;;;;5.76;65.28;94280.03;5049104;28;20195;-81
2022/03/08 06:07:39;;;;;;;21.03;15.03;;;;;;;5.93;65.13;94298.25;5049971;28;20625;-81
2022/03/08 06:10:13;;;;;;;20.50;15.07;;;;;;;6.64;64.93;94397.63;5051315;28;20293;-80
2022/03/08 06:12:41;;;;;;;20.23;15.33;;;;;;;5.32;64.74;94183.75;5053702;28;20221;-81
2022/03/08 06:15:09;;;;;;;19.60;14.17;;;;;;;6.80;64.61;94405.66;5057450;28;20678;-80
2022/03/08 06:17:36;;;;;;;22.30;15.70;;;;;;;7.02;64.60;94428.41;5054770;28;20194;-80
2022/03/08 06:20:03;;;;;;;20.73;15.33;;;;;;;6.85;64.34;94387.50;5051002;28;20705;-78
2022/03/08 06:22:31;;;;;;;19.80;15.00;;;;;;;7.11;64.10;94413.34;5051679;28;20214;-80
2022/03/08 06:24:58;;;;;;;20.03;14.93;;;;;;;6.77;64.15;94347.44;5052315;28;20226;-80
2022/03/08 06:27:25;;;;;;;18.83;14.07;;;;;;;7.29;63.77;94429.66;5053026;28;20195;-79
2022/03/08 06:29:52;;;;;;;19.00;13.60;;;;;;;7.35;63.99;94434.28;5052235;28;20277;-77
2022/03/08 06:32:19;;;;;;;17.80;13.30;;;;;;;7.19;63.71;94404.19;5051071;28;20299;-79
2022/03/08 06:34:46;;;;;;;19.03;14.13;;;;;;;7.44;63.57;94437.81;5053572;28;20203;-81
2022/03/08 06:37:13;;;;;;;17.93;13.27;;;;;;;7.18;63.37;94382.22;5053235;28;20194;-83
2022/03/08 06:39:42;;;;;;;16.90;13.20;;;;;;;7.54;63.17;94436.13;5059917;28;20628;-77
2022/03/08 06:42:09;;;;;;;17.90;13.23;;;;;;;7.58;63.07;94434.94;5051783;28;20227;-83
2022/03/08 06:44:38;;;;;;;16.17;13.50;;;;;;;7.61;62.98;94447.41;5047446;28;20202;-83
2022/03/08 06:47:06;;;;;;;17.27;13.87;;;;;;;7.69;62.89;94436.63;5050066;28;20195;-82
2022/03/08 06:49:33;;;;;;;17.10;13.63;;;;;;;7.45;62.58;94396.97;5053567;28;20942;-81
2022/03/08 06:52:00;;;;;;;16.63;13.17;;;;;;;7.45;62.70;94391.06;5047039;28;20199;-82
2022/03/08 06:54:27;;;;;;;16.17;12.97;;;;;;;7.70;62.31;94418.66;5047297;28;20187;-79
2022/03/08 06:56:55;;;;;;;19.17;13.37;;;;;;;7.80;62.21;94439.06;5049997;28;20201;-82
2022/03/08 06:59:22;;;;;;;16.87;13.23;;;;;;;7.80;62.03;94437.31;5054878;28;20202;-83
2022/03/08 07:01:49;;;;;;;16.03;12.90;;;;;;;7.37;61.85;94380.72;5047619;28;20199;-81
2022/03/08 07:04:16;;;;;;;17.50;13.40;;;;;;;7.80;62.07;94439.88;5047486;28;20215;-81
2022/03/08 07:06:43;;;;;;;15.67;12.40;;;;;;;7.79;61.90;94447.63;5049162;28;20219;-83
2022/03/08 07:09:10;;;;;;;16.93;13.57;;;;;;;7.79;61.93;94434.91;5050210;28;20191;-83
2022/03/08 07:11:37;;;;;;;16.40;12.40;;;;;;;7.70;61.95;94430.59;5048584;28;20261;-82
2022/03/08 07:14:05;;;;;;;16.70;12.97;;;;;;;7.77;61.63;94446.94;5052825;28;20195;-82
2022/03/08 07:16:33;;;;;;;16.30;12.70;;;;;;;7.74;61.75;94449.75;5065815;28;20201;-82
2022/03/08 07:18:59;;;;;;;14.40;12.07;;;;;;;7.72;61.65;94446.53;5063242;28;20213;-81
2022/03/08 07:21:26;;;;;;;15.33;11.73;;;;;;;7.72;61.59;94446.53;5053618;28;20191;-82
2022/03/08 07:23:53;;;;;;;13.20;11.03;;;;;;;7.72;61.52;94441.44;5046912;28;20221;-80
2022/03/08 07:26:20;;;;;;;13.67;11.80;;;;;;;7.75;61.36;94447.06;5056105;28;20202;-79
2022/03/08 07:28:47;;;;;;;13.47;11.00;;;;;;;7.77;61.24;94442.69;5052383;28;20588;-80
2022/03/08 07:31:15;;;;;;;13.67;10.13;;;;;;;7.81;61.14;94450.84;5048945;28;20179;-82
2022/03/08 07:33:42;;;;;;;12.97;11.33;;;;;;;7.84;60.92;94447.25;5046617;28;20190;-80
2022/03/08 07:36:09;;;;;;;12.23;10.97;;;;;;;7.86;61.09;94443.66;5046935;28;20195;-81
2022/03/08 07:38:36;;;;;;;13.13;11.13;;;;;;;7.32;60.86;94354.88;5055633;28;20198;-80
2022/03/08 07:41:04;;;;;;;11.87;10.67;;;;;;;7.23;60.90;94344.50;5055133;28;20199;-81
2022/03/08 07:43:31;;;;;;;12.43;10.07;;;;;;;7.89;60.80;94443.38;5049534;28;20210;-79
2022/03/08 07:45:58;;;;;;;13.30;10.63;;;;;;;7.75;60.70;94419.06;5046799;28;20685;-80
2022/03/08 07:48:26;;;;;;;13.00;9.83;;;;;;;7.91;60.56;94441.53;5046611;28;20208;-81
2022/03/08 07:50:53;;;;;;;13.30;10.97;;;;;;;7.85;60.33;94431.84;5046892;28;20191;-82
2022/03/08 07:53:20;;;;;;;13.20;11.17;;;;;;;6.85;60.30;94268.84;5046879;28;20191;-79
2022/03/08 07:55:47;;;;;;;12.37;10.37;;;;;;;7.93;60.27;94443.94;5046645;28;20264;-79
2022/03/08 07:58:14;;;;;;;11.97;9.97;;;;;;;7.78;60.13;94418.84;5046604;28;20187;-81
2022/03/08 08:00:42;;;;;;;21.50;7.57;;;;;;;8.50;100.00;94445.06;5047460;28;20209;-85
2022/03/08 08:03:09;;;;;;;12.70;8.40;;;;;;;9.05;100.00;94364.59;5046607;28;20720;-80
2022/03/08 08:05:39;;;;;;;11.80;8.30;;;;;;;10.36;100.00;94402.03;5045857;28;20523;-79
2022/03/08 08:08:07;;;;;;;13.97;8.33;;;;;;;11.58;100.00;94445.84;5050768;28;20207;-80
2022/03/08 08:10:35;;;;;;;13.83;11.00;;;;;;;12.06;97.77;94447.09;5068835;28;20186;-79
2022/03/08 08:13:02;;;;;;;13.33;11.07;;;;;;;12.11;91.73;94436.41;5065312;28;20210;-79
2022/03/08 08:15:29;;;;;;;14.50;12.23;;;;;;;11.98;84.79;94440.19;5060726;28;20214;-82
2022/03/08 08:17:56;;;;;;;15.23;11.70;;;;;;;11.79;79.52;94437.81;5051280;28;20647;-84
2022/03/08 08:20:23;;;;;;;15.43;12.07;;;;;;;11.61;74.85;94449.84;5053053;28;20222;-79
2022/03/08 08:22:52;;;;;;;14.07;12.07;;;;;;;11.39;71.21;94446.81;5050786;28;21047;-79
2022/03/08 08:25:18;;;;;;;13.37;11.93;;;;;;;10.97;68.91;94416.72;5053358;28;20261;-75
2022/03/08 08:27:45;;;;;;;13.50;11.73;;;;;;;10.94;67.12;94447.72;5049986;28;20187;-79
2022/03/08 08:30:13;;;;;;;14.67;12.23;;;;;;;10.73;65.87;94453.09;5055500;28;20191;-79
2022/03/08 08:32:40;;;;;;;14.17;12.17;;;;;;;10.52;64.76;94455.91;5053542;28;20230;-79
2022/03/08 08:35:08;;;;;;;13.87;11.53;;;;;;;10.31;64.03;94455.34;5052010;28;20191;-80
2022/03/08 08:37:35;;;;;;;13.33;11.70;;;;;;;9.32;63.25;94340.09;5066318;28;20213;-80
2022/03/08 08:40:04;;;;;;;13.20;11.40;;;;;;;9.44;62.35;94384.13;5067147;28;20186;-77
2022/03/08 08:42:31;;;;;;;14.10;12.17;;;;;;;9.36;62.06;94409.53;5061836;28;20205;-82
2022/03/08 08:44:58;;;;;;;14.63;12.77;;;;;;;9.41;61.42;94449.03;5056454;28;20178;-82
2022/03/08 08:47:25;;;;;;;13.93;11.97;;;;;;;9.25;61.26;94457.22;5060946;28;20187;-79
2022/03/08 08:49:51;;;;;;;14.97;12.80;;;;;;;9.22;60.81;94475.34;5052960;28;20201;-80
2022/03/08 08:52:18;;;;;;;16.37;13.90;;;;;;;9.07;60.41;94470.78;5058389;28;20584;-80
2022/03/08 08:54:47;;;;;;;16.27;13.77;;;;;;;8.93;60.22;94466.88;5060257;28;20202;-81
2022/03/08 08:57:15;;;;;;;18.50;13.63;;;;;;;8.80;59.91;94472.22;5065320;28;20194;-83
2022/03/08 08:59:42;;;;;;;17.13;13.67;;;;;;;8.69;59.59;94474.91;5051166;28;20183;-83
2022/03/08 09:02:09;;;;;;;17.37;13.33;;;;;;;8.59;59.46;94474.06;5054595;28;20206;-81
2022/03/08 09:04:36;;;;;;;16.70;14.03;;;;;;;8.49;59.38;94477.41;5054423;28;20636;-81
2022/03/08 09:07:04;;;;;;;18.50;14.17;;;;;;;8.40;59.29;94468.00;5059956;28;20187;-81
2022/03/08 09:09:31;;;;;;;17.33;13.63;;;;;;;7.78;59.09;94387.47;5052527;28;20194;-82
2022/03/08 09:11:58;;;;;;;17.70;14.07;;;;;;;7.15;58.98;94302.84;5059363;28;20187;-85
2022/03/08 09:14:26;;;;;;;17.70;13.40;;;;;;;8.17;58.86;94469.91;5061024;28;20195;-79
2022/03/08 09:16:53;;;;;;;15.77;13.13;;;;;;;8.12;58.75;94468.66;5051899;28;20244;-79
2022/03/08 09:19:20;;;;;;;17.73;15.13;;;;;;;7.75;58.36;94420.81;5054964;28;20231;-79
2022/03/08 09:21:47;;;;;;;18.40;14.40;;;;;;;8.03;58.60;94467.69;5058458;28;20195;-81
2022/03/08 09:24:14;;;;;;;17.73;14.13;;;;;;;8.01;58.51;94472.91;5059383;28;20214;-84
2022/03/08 09:26:41;;;;;;;19.60;13.63;;;;;;;8.00;58.41;94480.69;5052137;28;20202;-80
2022/03/08 09:29:08;;;;;;;19.70;14.77;;;;;;;8.00;58.28;94470.50;5052940;28;20191;-79
2022/03/08 09:31:36;;;;;;;18.60;14.57;;;;;;;7.70;58.28;94428.03;5055090;28;20190;-83
2022/03/08 09:34:03;;;;;;;18.90;14.63;;;;;;;8.02;57.95;94468.63;5051200;28;20562;-81
2022/03/08 09:36:29;;;;;;;16.33;13.67;;;;;;;8.03;58.26;94468.53;5065190;28;20198;-81
2022/03/08 09:38:58;;;;;;;18.47;14.73;;;;;;;8.08;57.96;94469.88;5053309;28;20189;-86
2022/03/08 09:41:25;;;;;;;21.03;14.97;;;;;;;8.11;57.89;94470.41;5055669;28;20365;-89
2022/03/08 09:43:52;;;;;;;19.03;15.30;;;;;;;7.85;57.52;94431.84;5052835;28;20702;-84
2022/03/08 09:46:19;;;;;;;20.83;16.50;;;;;;;8.24;57.63;94475.28;5063449;28;20206;-84
2022/03/08 09:48:47;;;;;;;20.67;16.17;;;;;;;8.07;57.47;94424.97;5067323;28;20198;-83
2022/03/08 09:51:16;;;;;;;18.63;14.73;;;;;;;8.44;57.35;94477.00;5059196;28;20202;-81
2022/03/08 09:53:44;;;;;;;19.70;15.63;;;;;;;8.53;57.00;94472.84;5067024;28;20218;-79
2022/03/08 09:56:12;;;;;;;20.87;16.03;;;;;;;8.48;57.00;94445.22;5051202;28;20205;-85
2022/03/08 09:58:40;;;;;;;22.67;16.90;;;;;;;8.67;56.82;94472.47;5052281;28;20195;-82
2022/03/08 10:01:07;;;;;;;20.57;16.17;;;;;;;8.40;56.67;94418.78;5048902;28;20214;-81
2022/03/08 10:03:38;;;;;;;20.80;16.47;;;;;;;8.77;56.44;94475.88;5051837;28;20214;-81
2022/03/08 10:06:07;;;;;;;21.53;16.73;;;;;;;8.37;56.31;94417.28;5047345;28;20277;-83
2022/03/08 10:08:34;;;;;;;21.20;16.30;;;;;;;7.96;56.28;94334.22;5050981;28;20245;-79
2022/03/08 10:11:03;;;;;;;21.67;16.47;;;;;;;8.89;56.20;94470.63;5053111;28;20606;-83
2022/03/08 10:13:33;;;;;;;22.23;17.10;;;;;;;8.48;55.99;94401.09;5052453;28;20217;-82
2022/03/08 10:16:12;;;;;;;21.53;15.87;;;;;;;9.01;55.73;94474.66;5052229;28;20644;-80
2022/03/08 10:18:42;;;;;;;21.60;16.53;;;;;;;9.08;55.53;94480.84;5054658;28;20214;-83
2022/03/08 10:21:34;;;;;;;20.33;16.33;;;;;;;9.16;55.55;94485.31;5050865;28;20218;-78
2022/03/08 10:24:03;;;;;;;17.80;15.03;;;;;;;9.22;55.22;94475.34;4989762;28;20233;-81
2022/03/08 10:26:33;;;;;;;20.53;15.60;;;;;;;9.08;54.93;94441.78;4985204;28;20208;-77
2022/03/08 10:29:05;;;;;;;19.07;15.07;;;;;;;9.39;54.90;94467.97;4996074;28;20213;-84
2022/03/08 10:31:31;;;;;;;19.40;15.30;;;;;;;9.59;54.79;94477.22;4988990;28;20208;-79
2022/03/08 10:34:05;;;;;;;17.90;14.77;;;;;;;9.73;54.43;94479.31;4987246;28;20197;-82
2022/03/08 10:36:35;;;;;;;18.70;15.47;;;;;;;9.71;53.95;94447.19;4985446;28;20760;-78
2022/03/08 10:39:11;;;;;;;17.93;15.27;;;;;;;10.06;53.96;94477.22;4986225;28;20770;-76
2022/03/08 10:41:48;;;;;;;22.97;15.93;;;;;;;10.23;53.26;94476.50;4988247;28;20204;-79
2022/03/08 10:44:15;;;;;;;19.57;15.80;;;;;;;10.23;52.98;94450.09;4985544;28;20208;-77
2022/03/08 10:46:42;;;;;;;19.27;15.67;;;;;;;10.48;52.93;94466.56;4986700;28;20328;-79
2022/03/08 10:49:13;;;;;;;20.57;15.70;;;;;;;10.62;52.71;94467.84;5001538;28;20340;-77
2022/03/08 10:51:41;;;;;;;20.17;16.17;;;;;;;10.73;52.46;94465.88;4997485;28;20475;-76
2022/03/08 10:54:12;;;;;;;22.60;16.17;;;;;;;10.85;52.41;94458.03;4985003;28;20256;-79
2022/03/08 10:56:44;;;;;;;19.93;15.23;;;;;;;10.75;51.85;94438.44;4989471;28;20189;-79
2022/03/08 10:59:12;;;;;;;18.03;14.77;;;;;;;11.11;51.66;94476.00;5003492;28;20213;-79
2022/03/08 11:01:39;;;;;;;20.20;15.63;;;;;;;10.91;51.20;94424.97;5036305;28;20257;-79
2022/03/08 11:04:18;;;;;;;21.73;16.13;;;;;;;11.38;50.93;94473.38;5049814;28;20629;-82
2022/03/08 11:06:47;;;;;;;18.63;15.40;;;;;;;11.52;50.53;94469.47;5052587;28;20202;-79
2022/03/08 11:09:14;;;;;;;18.93;15.63;;;;;;;11.65;50.60;94464.75;5050223;28;20201;-81
2022/03/08 11:11:42;;;;;;;19.40;15.87;;;;;;;11.69;50.00;94449.91;5055742;28;20197;-80
2022/03/08 11:14:09;;;;;;;17.73;15.40;;;;;;;11.85;49.99;94454.34;5050342;28;20198;-79
2022/03/08 11:16:36;;;;;;;18.93;15.10;;;;;;;11.94;49.75;94456.81;5054151;28;20193;-80
2022/03/08 11:19:05;;;;;;;20.03;16.13;;;;;;;12.12;49.54;94455.94;5055602;28;20213;-79
2022/03/08 11:21:33;;;;;;;21.10;15.70;;;;;;;12.10;49.05;94443.28;5059762;28;20191;-82
2022/03/08 11:24:03;;;;;;;19.97;15.63;;;;;;;12.28;48.83;94449.13;5044417;28;20272;-80
2022/03/08 11:26:30;;;;;;;18.20;15.60;;;;;;;12.31;48.70;94432.66;5049247;28;20191;-77